Birch Creek GC
600 E Center St, Smithfield
Last Weather Update:10/31/2011 10:00:00 PM
Date
ETo
ETc
Rain
Irrigation
Req
Temp
Max
Temp
Min
Temp
Avg
Avg RH
Avg Wind
Avg Solar
inches
inches
incehs
inches
F
F
F
%
%
watts/m2
9/1/2011 0.21" 0.14" 0.00" 0.14" 82.7° 49.7° 64.3° 45.2% 3.5 MPH 279.1w/m2
9/2/2011 0.20" 0.14" 0.00" 0.14" 80.1° 45.9° 61.8° 37.9% 3.4 MPH 288.6w/m2
9/3/2011 0.20" 0.14" 0.00" 0.14" 83.0° 46.0° 63.4° 37.3% 3.2 MPH 284.5w/m2
9/4/2011 0.21" 0.15" 0.00" 0.15" 86.3° 46.5° 65.6° 39.8% 3.5 MPH 285.2w/m2
9/5/2011 0.13" 0.09" 0.00" 0.09" 77.9° 50.6° 64.2° 50.8% 4.2 MPH 126.5w/m2
9/6/2011 0.19" 0.13" 0.03" 0.11" 81.6° 56.5° 67.2° 57.4% 4.1 MPH 250.1w/m2
9/7/2011 0.21" 0.14" 0.00" 0.14" 83.6° 50.8° 66.3° 41.1% 4.6 MPH 266.1w/m2
9/8/2011 0.21" 0.14" 0.00" 0.14" 82.3° 52.1° 67.8° 51.0% 4.2 MPH 267.0w/m2
9/9/2011 0.24" 0.16" 0.00" 0.16" 84.3° 54.4° 70.4° 19.5% 5.7 MPH 270.0w/m2
9/10/2011 0.23" 0.15" 0.00" 0.15" 84.4° 58.0° 70.2° 46.0% 5.7 MPH 254.8w/m2
9/11/2011 0.17" 0.11" 0.00" 0.11" 79.5° 51.4° 65.2° 52.6% 3.6 MPH 218.0w/m2
9/12/2011 0.18" 0.12" 0.00" 0.12" 78.7° 53.7° 64.6° 62.2% 3.8 MPH 246.1w/m2
9/13/2011 0.18" 0.12" 0.00" 0.12" 80.2° 47.6° 63.4° 66.0% 3.3 MPH 255.9w/m2
9/14/2011 0.18" 0.11" 0.00" 0.11" 81.9° 50.2° 63.9° 77.4% 3.4 MPH 244.3w/m2
9/15/2011 0.17" 0.11" 0.00" 0.11" 78.0° 48.9° 62.7° 52.3% 3.2 MPH 247.5w/m2
9/16/2011 0.09" 0.06" 0.48" -0.33" 70.5° 50.5° 58.2° 95.9% 3.3 MPH 131.4w/m2
9/17/2011 0.09" 0.06" 0.27" -0.16" 63.6° 48.2° 54.2° 76.5% 4.1 MPH 145.6w/m2
9/18/2011 0.15" 0.10" 0.00" 0.10" 73.4° 43.7° 57.6° 70.4% 3.1 MPH 238.7w/m2
9/19/2011 0.18" 0.11" 0.00" 0.11" 77.6° 45.8° 61.1° 47.4% 3.9 MPH 245.0w/m2
9/20/2011 0.16" 0.10" 0.00" 0.10" 77.0° 47.1° 61.2° 55.1% 3.4 MPH 242.6w/m2
9/21/2011 0.16" 0.10" 0.00" 0.10" 77.3° 44.5° 60.0° 61.5% 3.0 MPH 242.5w/m2
9/22/2011 0.16" 0.10" 0.00" 0.10" 79.4° 45.4° 61.4° 54.5% 3.1 MPH 242.1w/m2
9/23/2011 0.17" 0.10" 0.00" 0.10" 83.6° 46.9° 63.1° 49.8% 3.0 MPH 241.5w/m2
9/24/2011 0.16" 0.10" 0.00" 0.10" 82.7° 47.5° 63.0° 42.5% 2.9 MPH 227.9w/m2
9/25/2011 0.17" 0.11" 0.00" 0.11" 82.7° 47.0° 63.9° 48.1% 3.3 MPH 235.3w/m2
9/26/2011 0.17" 0.10" 0.00" 0.10" 80.6° 55.2° 66.1° 50.6% 3.8 MPH 224.3w/m2
9/27/2011 0.16" 0.10" 0.00" 0.10" 82.3° 47.0° 63.3° 56.4% 3.0 MPH 229.4w/m2
9/28/2011 0.16" 0.10" 0.00" 0.10" 85.2° 49.0° 64.6° 53.0% 3.3 MPH 225.6w/m2
9/29/2011 0.16" 0.10" 0.00" 0.10" 84.8° 47.2° 63.9° 51.0% 3.2 MPH 224.0w/m2
9/30/2011 0.16" 0.10" 0.00" 0.10" 87.5° 49.6° 66.1° 27.8% 3.2 MPH 218.9w/m2
Totals: 5.22" 3.40" 0.78" 2.77" 87.5° 43.7° 63.6° 52.6% 3.6 MPH 236.6w/m2